createdAt,value
2022-08-03T00:02:20.305Z,67.90
2022-08-03T00:04:47.937Z,68.93
2022-08-03T00:07:17.968Z,68.63
2022-08-03T00:09:55.137Z,67.14
2022-08-03T00:12:25.774Z,66.48
2022-08-03T00:14:56.226Z,66.55
2022-08-03T00:17:29.361Z,67.01
2022-08-03T00:19:59.468Z,67.28
2022-08-03T00:22:30.378Z,67.71
2022-08-03T00:25:03.467Z,68.13
2022-08-03T00:27:34.300Z,67.64
2022-08-03T00:30:07.816Z,65.90
2022-08-03T00:32:53.282Z,65.65
2022-08-03T00:35:36.815Z,66.01
2022-08-03T00:38:13.880Z,66.81
2022-08-03T00:40:44.634Z,67.11
2022-08-03T00:43:15.511Z,67.44
2022-08-03T00:45:47.989Z,68.35
2022-08-03T00:48:32.172Z,68.09
2022-08-03T00:51:04.562Z,66.41
2022-08-03T00:53:35.666Z,66.11
2022-08-03T00:56:08.517Z,66.82
2022-08-03T00:58:44.442Z,67.56
2022-08-03T01:01:12.767Z,67.84
2022-08-03T01:03:48.995Z,68.44
2022-08-03T01:06:21.888Z,69.38
2022-08-03T01:09:39.785Z,69.00
2022-08-03T01:12:34.111Z,66.77
2022-08-03T01:15:34.523Z,66.40
2022-08-03T01:18:43.279Z,67.10
2022-08-03T01:21:29.649Z,68.08
2022-08-03T01:24:05.758Z,68.44
2022-08-03T01:26:46.081Z,69.35
2022-08-03T01:29:41.782Z,68.22
2022-08-03T01:32:58.850Z,66.57
2022-08-03T01:35:14.559Z,66.55
2022-08-03T01:38:01.378Z,66.58
2022-08-03T01:40:29.152Z,67.01
2022-08-03T01:43:03.164Z,67.44
2022-08-03T01:45:33.974Z,67.84
2022-08-03T01:48:04.425Z,68.44
2022-08-03T01:50:37.336Z,68.35
2022-08-03T01:53:04.707Z,67.15
2022-08-03T01:55:33.326Z,66.93
2022-08-03T01:58:06.024Z,67.11
2022-08-03T02:00:43.027Z,67.65
2022-08-03T02:03:18.894Z,68.31
2022-08-03T02:06:01.243Z,68.59
2022-08-03T02:09:02.896Z,69.23
2022-08-03T02:11:58.877Z,68.19
2022-08-03T02:14:38.675Z,66.56
2022-08-03T02:17:15.777Z,66.26
2022-08-03T02:20:25.604Z,67.36
2022-08-03T02:23:06.931Z,67.81
2022-08-03T02:26:02.035Z,68.11
2022-08-03T02:31:15.705Z,68.61
2022-08-03T02:33:55.871Z,66.71
2022-08-03T02:36:31.729Z,66.23
2022-08-03T02:39:04.626Z,66.51
2022-08-03T02:42:18.051Z,67.16
2022-08-03T02:44:50.978Z,68.05
2022-08-03T02:47:21.081Z,68.23
2022-08-03T02:50:14.950Z,69.04
2022-08-03T02:53:07.727Z,68.36
2022-08-03T02:55:47.972Z,66.65
2022-08-03T02:58:37.296Z,66.31
2022-08-03T03:01:16.499Z,66.68
2022-08-03T03:03:44.808Z,66.98
2022-08-03T03:06:12.625Z,67.15
2022-08-03T03:08:43.004Z,67.36
2022-08-03T03:11:10.956Z,67.87
2022-08-03T03:13:38.760Z,67.55
2022-08-03T03:16:06.506Z,66.12
2022-08-03T03:18:34.461Z,65.58
2022-08-03T03:21:03.122Z,65.80
2022-08-03T03:23:31.325Z,66.26
2022-08-03T03:25:59.075Z,66.91
2022-08-03T03:28:26.539Z,67.54
2022-08-03T03:30:56.572Z,68.45
2022-08-03T03:33:23.959Z,68.21
2022-08-03T03:35:51.891Z,66.98
2022-08-03T03:38:19.727Z,66.72
2022-08-03T03:40:47.240Z,67.33
2022-08-03T03:43:14.978Z,68.05
2022-08-03T03:45:45.132Z,68.04
2022-08-03T03:48:12.800Z,68.67
2022-08-03T03:50:41.114Z,69.84
2022-08-03T03:53:12.117Z,69.41
2022-08-03T03:55:59.594Z,67.86
2022-08-03T03:58:28.084Z,67.30
2022-08-03T04:00:58.121Z,67.19
2022-08-03T04:03:25.635Z,67.72
2022-08-03T04:06:12.034Z,68.46
2022-08-03T04:08:58.085Z,69.54
2022-08-03T04:11:31.895Z,68.64
2022-08-03T04:14:17.031Z,67.09
2022-08-03T04:16:50.772Z,67.05
2022-08-03T04:19:38.779Z,67.55
2022-08-03T04:22:15.387Z,67.60
2022-08-03T04:24:54.131Z,68.20
2022-08-03T04:27:22.738Z,68.83
2022-08-03T04:29:54.159Z,68.11
2022-08-03T04:32:28.912Z,66.10
2022-08-03T04:34:58.966Z,65.21
2022-08-03T04:37:51.898Z,65.26
2022-08-03T04:40:41.699Z,65.59
2022-08-03T04:43:10.247Z,66.09
2022-08-03T04:45:40.172Z,66.60
2022-08-03T04:48:07.671Z,66.44
2022-08-03T04:50:35.677Z,66.74
2022-08-03T04:53:06.287Z,65.63
2022-08-03T04:55:36.931Z,64.03
2022-08-03T04:58:04.163Z,63.19
2022-08-03T05:00:31.439Z,62.61
2022-08-03T05:02:59.192Z,63.09
2022-08-03T05:05:48.704Z,63.24
2022-08-03T05:08:27.799Z,63.73
2022-08-03T05:11:01.506Z,64.12
2022-08-03T05:13:28.820Z,64.21
2022-08-03T05:15:55.991Z,64.39
2022-08-03T05:18:25.794Z,63.78
2022-08-03T05:21:02.286Z,62.20
2022-08-03T05:23:29.601Z,60.81
2022-08-03T05:25:59.457Z,60.95
2022-08-03T05:28:29.576Z,61.10
2022-08-03T05:31:00.191Z,61.47
2022-08-03T05:33:30.275Z,61.31
2022-08-03T05:36:03.609Z,61.92
2022-08-03T05:38:36.432Z,61.96
2022-08-03T05:41:21.375Z,61.33
2022-08-03T05:43:58.744Z,61.81
2022-08-03T05:46:28.403Z,62.20
2022-08-03T05:48:57.101Z,61.70
2022-08-03T05:51:27.814Z,59.33
2022-08-03T05:53:55.905Z,58.74
2022-08-03T05:56:26.974Z,57.79
2022-08-03T05:58:54.221Z,58.15
2022-08-03T06:01:24.581Z,58.38
2022-08-03T06:03:52.386Z,58.63
2022-08-03T06:06:19.798Z,59.33
2022-08-03T06:08:48.841Z,58.75
2022-08-03T06:11:18.990Z,58.67
2022-08-03T06:13:46.669Z,60.31
2022-08-03T06:16:14.289Z,59.83
2022-08-03T06:18:41.699Z,59.56
2022-08-03T06:21:15.208Z,58.68
2022-08-03T06:23:53.927Z,59.93
2022-08-03T06:26:25.799Z,58.25
2022-08-03T06:28:54.392Z,57.75
2022-08-03T06:31:24.329Z,57.27
2022-08-03T06:34:33.510Z,57.77
2022-08-03T06:36:43.976Z,56.18
2022-08-03T06:39:31.747Z,55.48
2022-08-03T06:41:59.332Z,56.15
2022-08-03T06:44:28.091Z,55.50
2022-08-03T06:46:55.850Z,55.04
2022-08-03T06:49:23.307Z,54.16
2022-08-03T06:52:04.186Z,55.31
2022-08-03T06:54:38.105Z,54.29
2022-08-03T06:57:06.551Z,55.51
2022-08-03T07:00:08.224Z,54.36
2022-08-03T07:02:31.827Z,54.47
2022-08-03T07:04:59.010Z,53.68
2022-08-03T07:07:29.420Z,52.99
2022-08-03T07:09:58.300Z,52.67
2022-08-03T07:12:28.729Z,51.67
2022-08-03T07:15:00.809Z,52.33
2022-08-03T07:17:30.507Z,50.92
2022-08-03T07:20:03.852Z,51.30
2022-08-03T07:22:31.571Z,50.93
2022-08-03T07:25:01.864Z,50.01
2022-08-03T07:27:30.471Z,50.40
2022-08-03T07:29:59.525Z,49.61
2022-08-03T07:32:26.787Z,48.27
2022-08-03T07:34:59.906Z,48.54
2022-08-03T07:37:30.947Z,49.33
2022-08-03T07:39:58.988Z,47.57
2022-08-03T07:42:29.920Z,48.22
2022-08-03T07:44:57.986Z,47.92
2022-08-03T07:47:34.828Z,47.29
2022-08-03T07:50:04.883Z,47.90
2022-08-03T07:52:51.600Z,46.24
2022-08-03T07:55:23.216Z,45.47
2022-08-03T07:58:06.548Z,46.65
2022-08-03T08:00:37.169Z,45.83
2022-08-03T08:03:04.874Z,44.59
2022-08-03T08:05:32.485Z,44.40
2022-08-03T08:08:00.734Z,44.31
2022-08-03T08:10:28.809Z,43.20
2022-08-03T08:12:56.910Z,43.69
2022-08-03T08:15:26.546Z,43.82
2022-08-03T08:17:55.664Z,44.57
2022-08-03T08:20:30.465Z,44.55
2022-08-03T08:23:03.506Z,43.77
2022-08-03T08:25:37.393Z,42.11
2022-08-03T08:28:30.710Z,40.86
2022-08-03T08:30:52.650Z,42.26
2022-08-03T08:33:23.270Z,39.68
2022-08-03T08:35:55.165Z,40.46
2022-08-03T08:38:24.046Z,40.31
2022-08-03T08:40:51.656Z,40.27
2022-08-03T08:43:18.912Z,40.46
2022-08-03T08:45:50.365Z,39.37
2022-08-03T08:48:25.206Z,39.75
2022-08-03T08:50:56.579Z,38.46
2022-08-03T08:53:29.003Z,39.45
2022-08-03T08:56:01.088Z,37.50
2022-08-03T08:58:37.064Z,39.59
2022-08-03T09:01:04.772Z,39.08
2022-08-03T09:03:35.835Z,37.40
2022-08-03T09:06:03.624Z,37.78
2022-08-03T09:08:40.012Z,37.82
2022-08-03T09:11:07.913Z,37.54
2022-08-03T09:13:36.151Z,37.62
2022-08-03T09:16:22.634Z,39.06
2022-08-03T09:18:51.679Z,36.24
2022-08-03T09:21:34.602Z,37.82
2022-08-03T09:24:05.321Z,37.91
2022-08-03T09:26:35.087Z,37.12
2022-08-03T09:29:10.875Z,37.34
2022-08-03T09:31:43.474Z,38.05
2022-08-03T09:34:17.989Z,37.45
2022-08-03T09:36:49.721Z,37.38
2022-08-03T09:39:18.799Z,37.24
2022-08-03T09:42:04.060Z,37.13
2022-08-03T09:44:42.628Z,35.64
2022-08-03T09:47:10.640Z,35.40
2022-08-03T09:49:38.734Z,35.22
2022-08-03T09:52:37.710Z,34.50
2022-08-03T09:56:31.118Z,35.37
2022-08-03T09:58:09.594Z,34.43
2022-08-03T10:00:52.678Z,36.37
2022-08-03T10:03:23.949Z,35.44
2022-08-03T10:05:59.311Z,37.60
2022-08-03T10:08:36.833Z,36.74
2022-08-03T10:11:06.414Z,35.70
2022-08-03T10:13:34.355Z,34.78
2022-08-03T10:16:22.822Z,35.63
2022-08-03T10:18:57.868Z,34.65
2022-08-03T10:21:36.066Z,36.57
2022-08-03T10:24:17.827Z,37.85
2022-08-03T10:26:49.694Z,36.92
2022-08-03T10:29:27.601Z,36.37
2022-08-03T10:32:02.064Z,34.42
2022-08-03T10:34:35.252Z,34.63
2022-08-03T10:37:02.501Z,33.79
2022-08-03T10:39:30.092Z,33.90
2022-08-03T10:42:02.670Z,35.11
2022-08-03T10:44:33.951Z,33.45
2022-08-03T10:47:12.487Z,33.82
2022-08-03T10:49:49.306Z,35.37
2022-08-03T10:52:32.863Z,35.81
2022-08-03T10:55:21.324Z,35.72
2022-08-03T10:57:58.244Z,36.15
2022-08-03T11:00:27.228Z,33.92
2022-08-03T11:03:16.668Z,35.20
2022-08-03T11:05:48.246Z,35.13
2022-08-03T11:08:39.657Z,36.05
2022-08-03T11:11:19.420Z,35.24
2022-08-03T11:14:08.646Z,36.06
2022-08-03T11:16:43.559Z,36.78
2022-08-03T11:19:14.520Z,37.24
2022-08-03T11:21:53.373Z,37.47
2022-08-03T11:24:47.341Z,38.33
2022-08-03T11:27:17.862Z,36.28
2022-08-03T11:30:29.316Z,37.61
2022-08-03T11:33:02.602Z,37.49
2022-08-03T11:35:35.502Z,36.70
2022-08-03T11:38:05.301Z,36.72
2022-08-03T11:40:39.961Z,36.72
2022-08-03T11:43:22.474Z,36.72
2022-08-03T11:46:03.134Z,37.66
2022-08-03T11:48:40.419Z,37.73
2022-08-03T11:51:08.296Z,36.33
2022-08-03T11:53:42.100Z,37.20
2022-08-03T11:56:13.263Z,38.61
2022-08-03T11:59:01.902Z,36.88
2022-08-03T12:01:43.443Z,36.77
2022-08-03T12:04:11.828Z,36.98
2022-08-03T12:06:55.244Z,36.61
2022-08-03T12:09:26.530Z,37.24
2022-08-03T12:11:59.898Z,39.31
2022-08-03T12:14:51.210Z,37.85
2022-08-03T12:17:19.935Z,38.91
2022-08-03T12:19:49.846Z,38.14
2022-08-03T12:22:31.013Z,38.27
2022-08-03T12:24:58.903Z,39.67
2022-08-03T12:27:31.945Z,37.91
2022-08-03T12:29:59.947Z,37.31
2022-08-03T12:32:33.549Z,37.46
2022-08-03T12:35:11.730Z,38.04
2022-08-03T12:37:41.888Z,38.16
2022-08-03T12:40:13.277Z,38.10
2022-08-03T12:42:45.003Z,38.91
2022-08-03T12:45:28.407Z,37.70
2022-08-03T12:48:01.808Z,37.41
2022-08-03T12:50:33.632Z,38.11
2022-08-03T12:53:05.428Z,37.72
2022-08-03T12:55:57.892Z,36.67
2022-08-03T12:58:39.129Z,35.92
2022-08-03T13:01:13.677Z,36.02
2022-08-03T13:03:43.150Z,36.71
2022-08-03T13:06:13.560Z,36.68
2022-08-03T13:08:41.860Z,37.96
2022-08-03T13:11:55.497Z,37.17
2022-08-03T13:14:20.374Z,37.74
2022-08-03T13:16:57.157Z,37.38
2022-08-03T13:19:26.609Z,37.49
2022-08-03T13:22:03.943Z,38.11
2022-08-03T13:24:32.661Z,37.69
2022-08-03T13:27:00.637Z,36.74
2022-08-03T13:29:50.739Z,36.47
2022-08-03T13:32:21.141Z,36.91
2022-08-03T13:34:48.581Z,37.41
2022-08-03T13:37:16.131Z,37.22
2022-08-03T13:39:57.562Z,38.16
2022-08-03T13:42:32.745Z,37.54
2022-08-03T13:45:00.574Z,37.04
2022-08-03T13:47:28.136Z,37.10
2022-08-03T13:50:01.151Z,37.13
2022-08-03T13:52:33.950Z,37.26
2022-08-03T13:55:02.453Z,37.61
2022-08-03T13:58:18.928Z,38.68
2022-08-03T14:00:26.507Z,37.83
2022-08-03T14:03:05.313Z,38.00
2022-08-03T14:05:38.772Z,39.24
2022-08-03T14:08:07.120Z,38.89
2022-08-03T14:10:45.947Z,39.10
2022-08-03T14:13:16.584Z,38.94
2022-08-03T14:15:51.175Z,38.96
2022-08-03T14:18:28.924Z,39.28
2022-08-03T14:21:05.765Z,39.87
2022-08-03T14:23:34.875Z,40.79
2022-08-03T14:26:02.049Z,41.25
2022-08-03T14:28:29.781Z,40.91
2022-08-03T14:30:57.287Z,40.61
2022-08-03T14:33:25.075Z,41.37
2022-08-03T14:35:52.352Z,40.93
2022-08-03T14:38:19.756Z,40.86
2022-08-03T14:40:47.583Z,39.91
2022-08-03T14:43:18.629Z,40.13
2022-08-03T14:45:46.215Z,40.58
2022-08-03T14:50:32.161Z,41.21
2022-08-03T14:51:18.073Z,40.15
2022-08-03T14:53:46.658Z,38.92
2022-08-03T14:56:16.791Z,39.35
2022-08-03T14:58:51.551Z,39.51
2022-08-03T15:02:06.018Z,39.86
2022-08-03T15:04:10.489Z,39.52
2022-08-03T15:06:41.202Z,39.38
2022-08-03T15:09:23.594Z,40.13
2022-08-03T15:11:51.486Z,40.55
2022-08-03T15:14:22.224Z,41.27
2022-08-03T15:17:00.862Z,41.16
2022-08-03T15:20:02.292Z,41.48
2022-08-03T15:22:20.528Z,42.26
2022-08-03T15:24:56.351Z,42.20
2022-08-03T15:27:23.930Z,42.68
2022-08-03T15:30:08.786Z,43.15
2022-08-03T15:32:37.682Z,43.46
2022-08-03T15:35:05.411Z,43.55
2022-08-03T15:37:32.997Z,43.34
2022-08-03T15:40:01.234Z,43.17
2022-08-03T15:42:29.728Z,43.09
2022-08-03T15:44:58.187Z,42.63
2022-08-03T15:47:25.866Z,42.41
2022-08-03T15:49:53.261Z,42.23
2022-08-03T15:52:20.596Z,42.51
2022-08-03T15:54:47.972Z,42.57
2022-08-03T15:57:15.264Z,42.60
2022-08-03T15:59:44.978Z,42.52
2022-08-03T16:02:13.106Z,42.07
2022-08-03T16:04:40.619Z,42.08
2022-08-03T16:07:07.781Z,42.35
2022-08-03T16:09:44.084Z,42.04
2022-08-03T16:12:16.095Z,42.23
2022-08-03T16:14:52.960Z,42.27
2022-08-03T16:17:24.782Z,42.43
2022-08-03T16:19:55.123Z,42.78
2022-08-03T16:22:26.494Z,42.72
2022-08-03T16:24:54.034Z,42.96
2022-08-03T16:27:56.821Z,43.30
2022-08-03T16:30:10.142Z,43.68
2022-08-03T16:32:39.773Z,43.48
2022-08-03T16:35:07.323Z,43.31
2022-08-03T16:37:38.780Z,43.66
2022-08-03T16:40:17.383Z,43.66
2022-08-03T16:42:47.080Z,43.94
2022-08-03T16:45:18.280Z,43.65
2022-08-03T16:48:01.262Z,44.28
2022-08-03T16:50:35.491Z,45.07
2022-08-03T16:53:09.089Z,45.97
2022-08-03T16:55:48.921Z,46.51
2022-08-03T16:58:34.422Z,46.64
2022-08-03T17:01:20.949Z,46.65
2022-08-03T17:04:02.756Z,46.69
2022-08-03T17:06:36.271Z,46.80
2022-08-03T17:09:12.809Z,46.97
2022-08-03T17:11:43.924Z,46.73
2022-08-03T17:14:22.757Z,46.93
2022-08-03T17:16:55.643Z,46.97
2022-08-03T17:19:29.456Z,47.57
2022-08-03T17:22:07.938Z,47.73
2022-08-03T17:24:48.121Z,47.78
2022-08-03T17:28:48.252Z,48.08
2022-08-03T17:30:54.346Z,48.61
2022-08-03T17:33:25.212Z,48.81
2022-08-03T17:36:08.891Z,49.10
2022-08-03T17:38:40.716Z,49.42
2022-08-03T17:41:15.452Z,49.08
2022-08-03T17:44:15.994Z,50.36
2022-08-03T17:46:38.920Z,50.96
2022-08-03T17:49:25.030Z,51.55
2022-08-03T17:52:03.153Z,52.32
2022-08-03T17:55:56.043Z,51.96
2022-08-03T17:58:02.789Z,53.06
2022-08-03T18:00:52.661Z,53.71
2022-08-03T18:04:10.616Z,54.16
2022-08-03T18:06:55.751Z,54.88
2022-08-03T18:10:05.945Z,55.92
2022-08-03T18:12:23.380Z,56.42
2022-08-03T18:15:01.123Z,56.06
2022-08-03T18:17:58.182Z,56.61
2022-08-03T18:20:34.341Z,57.93
2022-08-03T18:23:09.457Z,58.44
2022-08-03T18:25:53.621Z,58.51
2022-08-03T18:28:35.918Z,59.12
2022-08-03T18:31:08.323Z,59.14
2022-08-03T18:34:18.954Z,59.46
2022-08-03T18:36:34.387Z,59.75
2022-08-03T18:39:04.801Z,59.43
2022-08-03T18:41:36.690Z,60.13
2022-08-03T18:44:53.044Z,60.55
2022-08-03T18:47:22.455Z,59.94
2022-08-03T18:50:20.708Z,58.55
2022-08-03T18:52:54.907Z,57.90
2022-08-03T18:55:33.554Z,58.21
2022-08-03T18:58:38.660Z,58.98
2022-08-03T19:01:57.980Z,59.63
2022-08-03T19:04:29.805Z,59.96
2022-08-03T19:07:08.965Z,60.95
2022-08-03T19:09:52.690Z,61.32
2022-08-03T19:12:35.443Z,61.74
2022-08-03T19:15:10.519Z,62.03
2022-08-03T19:17:53.362Z,63.01
2022-08-03T19:20:21.583Z,62.56
2022-08-03T19:22:53.212Z,60.77
2022-08-03T19:25:20.765Z,60.14
2022-08-03T19:28:04.076Z,60.29
2022-08-03T19:30:39.720Z,60.64
2022-08-03T19:33:08.966Z,61.30
2022-08-03T19:35:55.340Z,61.95
2022-08-03T19:38:28.335Z,62.47
2022-08-03T19:41:19.721Z,62.81
2022-08-03T19:43:53.533Z,63.36
2022-08-03T19:46:22.551Z,62.68
2022-08-03T19:49:10.665Z,60.91
2022-08-03T19:51:58.412Z,60.25
2022-08-03T19:54:53.214Z,60.65
2022-08-03T19:57:34.606Z,61.24
2022-08-03T20:00:03.344Z,62.01
2022-08-03T20:02:40.499Z,62.65
2022-08-03T20:05:14.990Z,63.08
2022-08-03T20:07:48.191Z,63.58
2022-08-03T20:10:20.697Z,64.20
2022-08-03T20:12:55.574Z,63.65
2022-08-03T20:15:31.478Z,62.02
2022-08-03T20:18:06.799Z,61.51
2022-08-03T20:20:44.360Z,61.48
2022-08-03T20:23:18.441Z,62.01
2022-08-03T20:26:03.788Z,62.49
2022-08-03T20:29:09.911Z,63.12
2022-08-03T20:31:44.312Z,63.93
2022-08-03T20:34:12.075Z,64.31
2022-08-03T20:36:57.156Z,64.03
2022-08-03T20:39:37.019Z,62.48
2022-08-03T20:42:07.636Z,62.27
2022-08-03T20:44:39.264Z,62.38
2022-08-03T20:47:23.999Z,62.82
2022-08-03T20:49:57.302Z,63.26
2022-08-03T20:52:33.300Z,63.85
2022-08-03T20:55:02.369Z,64.40
2022-08-03T21:00:46.719Z,64.15
2022-08-03T21:03:22.308Z,62.55
2022-08-03T21:06:01.622Z,62.23
2022-08-03T21:08:33.928Z,62.61
2022-08-03T21:11:04.402Z,62.99
2022-08-03T21:13:14.350Z,65.13
2022-08-03T21:14:18.180Z,63.73
2022-08-03T21:16:47.694Z,64.38
2022-08-03T21:19:21.128Z,64.89
2022-08-03T21:21:54.132Z,65.62
2022-08-03T21:24:24.721Z,65.31
2022-08-03T21:26:55.196Z,63.93
2022-08-03T21:29:25.932Z,63.54
2022-08-03T21:32:33.174Z,63.88
2022-08-03T21:35:12.125Z,64.64
2022-08-03T21:37:40.545Z,65.06
2022-08-03T21:40:09.370Z,65.49
2022-08-03T21:42:40.364Z,66.33
2022-08-03T21:45:17.992Z,65.86
2022-08-03T21:47:48.874Z,64.40
2022-08-03T21:50:28.909Z,63.94
2022-08-03T21:53:05.241Z,64.23
2022-08-03T21:55:38.180Z,64.64
2022-08-03T21:58:10.839Z,65.09
2022-08-03T22:00:41.354Z,65.36
2022-08-03T22:03:19.253Z,66.19
2022-08-03T22:05:52.456Z,65.59
2022-08-03T22:08:34.408Z,64.00
2022-08-03T22:11:12.475Z,63.76
2022-08-03T22:13:58.750Z,63.89
2022-08-03T22:16:46.787Z,64.59
2022-08-03T22:19:30.134Z,65.66
2022-08-03T22:22:08.581Z,66.07
2022-08-03T22:24:59.697Z,66.67
2022-08-03T22:27:35.039Z,65.74
2022-08-03T22:30:16.759Z,64.34
2022-08-03T22:33:03.882Z,63.79
2022-08-03T22:35:47.234Z,64.38
2022-08-03T22:38:48.123Z,65.23
2022-08-03T22:41:18.945Z,65.91
2022-08-03T22:43:46.546Z,66.42
2022-08-03T22:46:24.750Z,67.24
2022-08-03T22:48:59.959Z,66.88
2022-08-03T22:51:38.793Z,64.91
2022-08-03T22:54:15.182Z,64.51
2022-08-03T22:56:43.014Z,64.97
2022-08-03T22:59:41.127Z,65.41
2022-08-03T23:02:21.264Z,65.92
2022-08-03T23:04:53.227Z,66.59
2022-08-03T23:07:31.925Z,67.17
2022-08-03T23:10:05.532Z,66.94
2022-08-03T23:12:51.511Z,65.70
2022-08-03T23:15:26.846Z,65.57
2022-08-03T23:17:58.679Z,65.84
2022-08-03T23:20:31.196Z,66.61
2022-08-03T23:23:04.306Z,67.06
2022-08-03T23:25:39.588Z,67.73
2022-08-03T23:28:15.358Z,68.26
2022-08-03T23:30:45.907Z,67.56
2022-08-03T23:33:17.564Z,65.83
2022-08-03T23:36:20.123Z,64.94
2022-08-03T23:41:41.132Z,66.39
2022-08-03T23:44:16.647Z,66.88
2022-08-03T23:46:46.925Z,67.71
2022-08-03T23:49:23.657Z,68.35
2022-08-03T23:52:12.390Z,67.55
2022-08-03T23:55:12.291Z,65.85
2022-08-03T23:58:11.014Z,65.77
